createdAt,value
2023-03-12T00:01:30.568Z,100184.83
2023-03-12T00:04:02.162Z,100186.23
2023-03-12T00:06:30.619Z,100188.15
2023-03-12T00:09:01.335Z,100187.54
2023-03-12T00:11:29.720Z,100190.59
2023-03-12T00:14:03.317Z,100198.95
2023-03-12T00:16:33.102Z,100206.48
2023-03-12T00:19:05.602Z,100206.11
2023-03-12T00:21:33.636Z,100216.38
2023-03-12T00:24:01.714Z,100217.40
2023-03-12T00:26:30.657Z,100219.68
2023-03-12T00:28:59.806Z,100220.25
2023-03-12T00:31:41.151Z,100218.92
2023-03-12T00:34:10.452Z,100216.06
2023-03-12T00:36:40.760Z,100218.92
2023-03-12T00:39:10.342Z,100221.13
2023-03-12T00:41:38.289Z,100225.14
2023-03-12T00:44:06.354Z,100222.39
2023-03-12T00:46:34.518Z,100223.02
2023-03-12T00:49:02.823Z,100222.91
2023-03-12T00:51:30.942Z,100222.87
2023-03-12T00:53:58.968Z,100217.60
2023-03-12T00:56:27.167Z,100226.57
2023-03-12T00:58:57.994Z,100226.52
2023-03-12T01:01:29.155Z,100220.70
2023-03-12T01:03:59.188Z,100226.71
2023-03-12T01:06:28.320Z,100231.44
2023-03-12T01:08:56.320Z,100230.15
2023-03-12T01:11:24.660Z,100232.73
2023-03-12T01:13:52.682Z,100237.56
2023-03-12T01:16:20.745Z,100243.48
2023-03-12T01:18:48.811Z,100250.05
2023-03-12T01:21:16.811Z,100252.33
2023-03-12T01:23:45.184Z,100253.13
2023-03-12T01:26:14.773Z,100253.73
2023-03-12T01:28:42.911Z,100253.81
2023-03-12T01:31:15.389Z,100259.30
2023-03-12T01:33:49.146Z,100265.94
2023-03-12T01:36:21.780Z,100273.85
2023-03-12T01:38:55.105Z,100278.10
2023-03-12T01:41:26.271Z,100282.67
2023-03-12T01:43:54.360Z,100286.45
2023-03-12T01:46:34.856Z,100297.18
2023-03-12T01:49:20.342Z,100301.95
2023-03-12T01:52:08.637Z,100307.93
2023-03-12T01:54:58.471Z,100312.84
2023-03-12T01:57:35.693Z,100315.77
2023-03-12T02:00:26.860Z,100317.21
2023-03-12T02:03:04.265Z,100311.80
2023-03-12T02:06:06.212Z,100312.65
2023-03-12T02:08:42.848Z,100315.40
2023-03-12T02:11:15.950Z,100319.58
2023-03-12T02:13:44.461Z,100320.30
2023-03-12T02:16:12.881Z,100325.42
2023-03-12T02:18:40.918Z,100334.24
2023-03-12T02:21:17.773Z,100340.30
2023-03-12T02:24:14.842Z,100344.95
2023-03-12T02:26:42.921Z,100348.45
2023-03-12T02:29:11.893Z,100353.21
2023-03-12T02:31:49.825Z,100358.35
2023-03-12T02:34:17.900Z,100361.79
2023-03-12T02:36:48.376Z,100366.63
2023-03-12T02:39:16.482Z,100363.91
2023-03-12T02:42:05.351Z,100367.09
2023-03-12T02:44:33.774Z,100370.92
2023-03-12T02:47:03.271Z,100376.16
2023-03-12T02:49:35.167Z,100377.23
2023-03-12T02:52:06.921Z,100378.98
2023-03-12T02:54:35.346Z,100380.79
2023-03-12T02:57:03.677Z,100385.10
2023-03-12T02:59:33.816Z,100395.84
2023-03-12T03:02:02.609Z,100399.81
2023-03-12T03:04:31.582Z,100403.61
2023-03-12T03:07:00.367Z,100407.38
2023-03-12T03:09:29.023Z,100409.91
2023-03-12T03:11:57.082Z,100410.52
2023-03-12T03:14:26.083Z,100411.34
2023-03-12T03:16:56.442Z,100419.89
2023-03-12T03:19:25.284Z,100420.98
2023-03-12T03:21:54.604Z,100426.16
2023-03-12T03:24:22.722Z,100432.23
2023-03-12T03:26:52.345Z,100436.51
2023-03-12T03:29:21.263Z,100435.19
2023-03-12T03:31:49.386Z,100438.79
2023-03-12T03:34:18.047Z,100439.89
2023-03-12T03:36:46.142Z,100441.61
2023-03-12T03:39:15.447Z,100444.44
2023-03-12T03:41:45.905Z,100446.36
2023-03-12T03:44:14.568Z,100451.29
2023-03-12T03:46:43.923Z,100457.50
2023-03-12T03:49:12.298Z,100464.39
2023-03-12T03:51:42.924Z,100469.51
2023-03-12T03:54:12.805Z,100475.84
2023-03-12T03:56:41.377Z,100477.86
2023-03-12T03:59:10.143Z,100485.93
2023-03-12T04:01:39.208Z,100487.69
2023-03-12T04:04:07.680Z,100496.99
2023-03-12T04:06:36.139Z,100501.09
2023-03-12T04:09:05.327Z,100509.71
2023-03-12T04:11:34.220Z,100510.56
2023-03-12T04:14:02.404Z,100512.20
2023-03-12T04:16:32.355Z,100521.48
2023-03-12T04:19:01.026Z,100530.94
2023-03-12T04:21:29.366Z,100537.23
2023-03-12T04:23:57.477Z,100542.96
2023-03-12T04:26:29.097Z,100541.84
2023-03-12T04:28:57.480Z,100542.95
2023-03-12T04:31:26.348Z,100544.43
2023-03-12T04:33:54.875Z,100552.55
2023-03-12T04:36:24.252Z,100558.95
2023-03-12T04:38:53.321Z,100561.85
2023-03-12T04:41:25.488Z,100562.77
2023-03-12T04:43:58.052Z,100570.95
2023-03-12T04:46:26.756Z,100576.73
2023-03-12T04:48:55.569Z,100580.07
2023-03-12T04:51:24.324Z,100591.23
2023-03-12T04:53:52.549Z,100595.23
2023-03-12T04:56:20.744Z,100600.48
2023-03-12T04:58:49.305Z,100605.73
2023-03-12T05:01:29.406Z,100605.77
2023-03-12T05:03:57.804Z,100610.86
2023-03-12T05:06:26.337Z,100614.88
2023-03-12T05:08:55.176Z,100617.09
2023-03-12T05:11:23.689Z,100624.66
2023-03-12T05:13:52.140Z,100627.92
2023-03-12T05:16:20.381Z,100634.14
2023-03-12T05:18:48.547Z,100636.80
2023-03-12T05:21:20.234Z,100646.31
2023-03-12T05:23:48.791Z,100650.45
2023-03-12T05:26:27.427Z,100658.92
2023-03-12T05:29:01.356Z,100664.02
2023-03-12T05:31:32.523Z,100671.89
2023-03-12T05:34:03.055Z,100676.19
2023-03-12T05:36:31.194Z,100680.27
2023-03-12T05:38:59.999Z,100685.80
2023-03-12T05:41:29.833Z,100693.27
2023-03-12T05:44:01.226Z,100695.40
2023-03-12T05:46:29.609Z,100700.38
2023-03-12T05:48:59.982Z,100705.89
2023-03-12T05:51:28.532Z,100706.69
2023-03-12T05:53:56.918Z,100717.95
2023-03-12T05:56:24.999Z,100720.66
2023-03-12T05:58:53.131Z,100731.64
2023-03-12T06:01:25.808Z,100740.54
2023-03-12T06:04:00.130Z,100749.34
2023-03-12T06:06:32.285Z,100753.81
2023-03-12T06:09:09.175Z,100761.50
2023-03-12T06:11:37.239Z,100766.65
2023-03-12T06:14:05.826Z,100769.39
2023-03-12T06:16:38.846Z,100774.95
2023-03-12T06:19:08.626Z,100772.41
2023-03-12T06:21:36.714Z,100778.84
2023-03-12T06:24:10.641Z,100781.67
2023-03-12T06:26:46.705Z,100784.91
2023-03-12T06:29:16.105Z,100792.61
2023-03-12T06:31:44.901Z,100797.52
2023-03-12T06:34:16.219Z,100804.55
2023-03-12T06:36:46.017Z,100811.63
2023-03-12T06:39:16.656Z,100817.48
2023-03-12T06:41:44.929Z,100820.27
2023-03-12T06:44:13.829Z,100828.16
2023-03-12T06:46:43.723Z,100842.20
2023-03-12T06:49:12.216Z,100861.15
2023-03-12T06:51:43.892Z,100871.95
2023-03-12T06:54:12.173Z,100877.26
2023-03-12T06:56:41.768Z,100881.25
2023-03-12T06:59:09.933Z,100892.85
2023-03-12T07:01:38.513Z,100898.75
2023-03-12T07:04:07.025Z,100906.09
2023-03-12T07:06:36.131Z,100915.70
2023-03-12T07:09:05.833Z,100922.40
2023-03-12T07:11:34.008Z,100922.60
2023-03-12T07:14:02.067Z,100923.05
2023-03-12T07:16:30.821Z,100930.64
2023-03-12T07:18:58.867Z,100934.91
2023-03-12T07:21:31.047Z,100931.91
2023-03-12T07:24:00.240Z,100937.77
2023-03-12T07:26:28.390Z,100948.24
2023-03-12T07:28:57.171Z,100952.45
2023-03-12T07:31:26.692Z,100955.00
2023-03-12T07:33:55.161Z,100963.13
2023-03-12T07:36:23.904Z,100962.56
2023-03-12T07:38:52.213Z,100962.96
2023-03-12T07:41:20.682Z,100967.33
2023-03-12T07:43:49.462Z,100977.42
2023-03-12T07:46:18.858Z,100979.34
2023-03-12T07:48:48.617Z,100981.95
2023-03-12T07:51:19.056Z,100984.26
2023-03-12T07:53:47.772Z,100984.55
2023-03-12T07:56:16.332Z,100986.02
2023-03-12T07:58:44.728Z,100991.98
2023-03-12T08:01:13.392Z,101002.91
2023-03-12T08:03:42.499Z,101007.09
2023-03-12T08:06:10.810Z,101008.70
2023-03-12T08:08:41.321Z,101003.20
2023-03-12T08:11:09.600Z,101008.17
2023-03-12T08:13:37.729Z,101019.25
2023-03-12T08:16:09.280Z,101025.25
2023-03-12T08:18:37.798Z,101028.38
2023-03-12T08:21:05.967Z,101029.73
2023-03-12T08:23:35.134Z,101030.92
2023-03-12T08:26:03.351Z,101036.12
2023-03-12T08:28:31.531Z,101040.09
2023-03-12T08:31:00.523Z,101041.40
2023-03-12T08:33:29.228Z,101041.96
2023-03-12T08:35:57.450Z,101046.30
2023-03-12T08:38:25.546Z,101049.61
2023-03-12T08:40:58.417Z,101055.28
2023-03-12T08:43:29.289Z,101059.75
2023-03-12T08:46:00.631Z,101062.67
2023-03-12T08:48:32.615Z,101060.04
2023-03-12T08:51:05.277Z,101068.41
2023-03-12T08:53:35.707Z,101074.66
2023-03-12T08:56:04.871Z,101069.70
2023-03-12T08:58:32.970Z,101076.01
2023-03-12T09:01:11.242Z,101075.58
2023-03-12T09:03:41.064Z,101078.84
2023-03-12T09:06:16.299Z,101080.40
2023-03-12T09:08:45.087Z,101087.52
2023-03-12T09:11:15.214Z,101087.67
2023-03-12T09:14:33.549Z,101087.05
2023-03-12T09:16:32.901Z,101093.40
2023-03-12T09:19:01.816Z,101099.70
2023-03-12T09:21:30.337Z,101100.30
2023-03-12T09:23:58.645Z,101103.90
2023-03-12T09:26:26.712Z,101104.45
2023-03-12T09:28:54.763Z,101107.68
2023-03-12T09:31:23.837Z,101107.06
2023-03-12T09:33:52.243Z,101105.59
2023-03-12T09:36:20.404Z,101107.76
2023-03-12T09:38:49.762Z,101112.97
2023-03-12T09:41:35.104Z,101115.45
2023-03-12T09:44:28.553Z,101122.39
2023-03-12T09:47:02.674Z,101123.17
2023-03-12T09:49:53.668Z,101129.90
2023-03-12T09:52:39.773Z,101133.60
2023-03-12T09:55:15.929Z,101136.08
2023-03-12T09:57:47.787Z,101138.54
2023-03-12T10:00:23.546Z,101145.58
2023-03-12T10:03:15.469Z,101150.08
2023-03-12T10:06:11.124Z,101151.02
2023-03-12T10:08:55.452Z,101149.98
2023-03-12T10:11:49.871Z,101151.63
2023-03-12T10:14:49.527Z,101158.45
2023-03-12T10:17:48.365Z,101162.30
2023-03-12T10:20:34.683Z,101157.42
2023-03-12T10:23:20.949Z,101161.75
2023-03-12T10:26:15.685Z,101162.36
2023-03-12T10:29:15.819Z,101164.02
2023-03-12T10:32:06.636Z,101165.49
2023-03-12T10:35:02.608Z,101167.14
2023-03-12T10:38:00.842Z,101168.88
2023-03-12T10:40:38.420Z,101165.64
2023-03-12T10:43:06.751Z,101165.13
2023-03-12T10:46:27.233Z,101161.64
2023-03-12T10:49:23.013Z,101162.52
2023-03-12T10:52:23.136Z,101162.89
2023-03-12T10:54:53.192Z,101159.13
2023-03-12T10:57:21.345Z,101158.86
2023-03-12T10:59:50.749Z,101157.90
2023-03-12T11:02:42.681Z,101158.01
2023-03-12T11:05:30.977Z,101155.23
2023-03-12T11:08:04.328Z,101153.16
2023-03-12T11:10:32.211Z,101157.14
2023-03-12T11:13:20.301Z,101161.26
2023-03-12T11:15:49.123Z,101161.78
2023-03-12T11:18:35.166Z,101158.84
2023-03-12T11:21:10.208Z,101156.00
2023-03-12T11:23:59.520Z,101158.45
2023-03-12T11:26:36.599Z,101154.59
2023-03-12T11:29:26.611Z,101151.40
2023-03-12T11:32:10.083Z,101153.77
2023-03-12T11:34:39.613Z,101153.31
2023-03-12T11:37:57.435Z,101155.74
2023-03-12T11:41:11.593Z,101158.02
2023-03-12T11:44:19.215Z,101162.36
2023-03-12T11:47:14.766Z,101161.89
2023-03-12T11:50:21.561Z,101163.70
2023-03-12T11:53:07.012Z,101162.77
2023-03-12T11:56:15.277Z,101159.93
2023-03-12T11:59:01.800Z,101155.34
2023-03-12T12:02:12.584Z,101161.17
2023-03-12T12:05:06.019Z,101163.59
2023-03-12T12:08:08.932Z,101162.11
2023-03-12T12:11:13.140Z,101164.17
2023-03-12T12:14:15.375Z,101163.34
2023-03-12T12:17:04.841Z,101166.55
2023-03-12T12:20:08.826Z,101169.56
2023-03-12T12:22:57.176Z,101173.89
2023-03-12T12:26:01.999Z,101174.69
2023-03-12T12:28:38.502Z,101174.33
2023-03-12T12:31:51.795Z,101180.80
2023-03-12T12:34:43.620Z,101191.64
2023-03-12T12:37:48.196Z,101189.10
2023-03-12T12:40:43.650Z,101188.30
2023-03-12T12:43:27.455Z,101183.96
2023-03-12T12:46:02.508Z,101187.64
2023-03-12T12:48:54.672Z,101193.14
2023-03-12T12:51:52.152Z,101193.03
2023-03-12T12:54:51.030Z,101197.83
2023-03-12T12:57:38.874Z,101190.16
2023-03-12T13:00:19.117Z,101193.87
2023-03-12T13:02:49.144Z,101198.30
2023-03-12T13:05:49.825Z,101196.61
2023-03-12T13:08:40.117Z,101204.13
2023-03-12T13:11:20.374Z,101207.43
2023-03-12T13:14:11.983Z,101209.61
2023-03-12T13:16:45.479Z,101206.80
2023-03-12T13:19:13.443Z,101200.08
2023-03-12T13:22:15.814Z,101207.77
2023-03-12T13:25:14.315Z,101209.45
2023-03-12T13:27:45.592Z,101211.88
2023-03-12T13:30:35.178Z,101217.04
2023-03-12T13:33:13.471Z,101214.54
2023-03-12T13:35:42.019Z,101216.63
2023-03-12T13:38:18.158Z,101218.77
2023-03-12T13:41:03.006Z,101225.28
2023-03-12T13:43:37.091Z,101224.87
2023-03-12T13:46:15.095Z,101225.30
2023-03-12T13:48:48.701Z,101227.11
2023-03-12T13:51:28.115Z,101224.08
2023-03-12T13:54:02.344Z,101230.90
2023-03-12T13:56:33.067Z,101232.04
2023-03-12T13:59:17.192Z,101232.42
2023-03-12T14:01:50.229Z,101231.71
2023-03-12T14:04:29.217Z,101228.37
2023-03-12T14:07:47.469Z,101231.80
2023-03-12T14:11:09.777Z,101236.27
2023-03-12T14:13:43.348Z,101238.30
2023-03-12T14:16:41.501Z,101241.02
2023-03-12T14:19:14.172Z,101240.07
2023-03-12T14:21:46.759Z,101245.76
2023-03-12T14:24:47.493Z,101248.77
2023-03-12T14:27:23.502Z,101245.96
2023-03-12T14:30:22.838Z,101250.58
2023-03-12T14:33:01.157Z,101246.36
2023-03-12T14:35:48.548Z,101248.42
2023-03-12T14:38:24.968Z,101250.71
2023-03-12T14:41:39.327Z,101253.81
2023-03-12T14:44:24.294Z,101251.89
2023-03-12T14:47:17.547Z,101256.34
2023-03-12T14:49:46.597Z,101257.20
2023-03-12T14:52:26.952Z,101261.21
2023-03-12T14:55:11.953Z,101263.10
2023-03-12T14:57:41.489Z,101268.27
2023-03-12T15:00:36.079Z,101272.41
2023-03-12T15:03:11.871Z,101278.58
2023-03-12T15:05:48.658Z,101276.98
2023-03-12T15:08:18.043Z,101280.98
2023-03-12T15:10:54.610Z,101284.52
2023-03-12T15:13:25.840Z,101286.21
2023-03-12T15:15:55.194Z,101289.09
2023-03-12T15:18:33.154Z,101296.34
2023-03-12T15:21:03.472Z,101296.58
2023-03-12T15:23:35.543Z,101298.10
2023-03-12T15:26:11.602Z,101300.34
2023-03-12T15:28:40.108Z,101307.73
2023-03-12T15:31:16.293Z,101308.80
2023-03-12T15:33:44.623Z,101311.84
2023-03-12T15:36:26.539Z,101309.63
2023-03-12T15:39:12.364Z,101311.08
2023-03-12T15:41:47.309Z,101314.29
2023-03-12T15:44:22.854Z,101322.10
2023-03-12T15:47:03.524Z,101323.41
2023-03-12T15:49:35.906Z,101329.68
2023-03-12T15:52:18.820Z,101335.02
2023-03-12T15:55:11.599Z,101334.84
2023-03-12T15:57:47.191Z,101341.56
2023-03-12T16:00:21.271Z,101349.40
2023-03-12T16:02:53.024Z,101351.77
2023-03-12T16:05:26.278Z,101356.17
2023-03-12T16:07:54.604Z,101359.46
2023-03-12T16:10:26.471Z,101365.25
2023-03-12T16:13:03.243Z,101367.65
2023-03-12T16:15:36.441Z,101370.23
2023-03-12T16:18:05.400Z,101375.39
2023-03-12T16:20:33.479Z,101380.38
2023-03-12T16:23:01.563Z,101390.53
2023-03-12T16:25:30.389Z,101392.87
2023-03-12T16:28:02.820Z,101397.32
2023-03-12T16:30:35.174Z,101401.17
2023-03-12T16:33:08.979Z,101405.48
2023-03-12T16:35:37.402Z,101411.02
2023-03-12T16:38:06.674Z,101423.68
2023-03-12T16:40:40.506Z,101433.20
2023-03-12T16:43:15.118Z,101438.96
2023-03-12T16:45:46.316Z,101441.20
2023-03-12T16:48:18.870Z,101445.73
2023-03-12T16:50:55.752Z,101452.11
2023-03-12T16:53:24.593Z,101458.42
2023-03-12T16:55:58.745Z,101465.08
2023-03-12T16:58:28.655Z,101469.47
2023-03-12T17:00:57.093Z,101474.06
2023-03-12T17:03:33.804Z,101477.05
2023-03-12T17:06:05.492Z,101483.36
2023-03-12T17:08:35.962Z,101490.66
2023-03-12T17:11:19.153Z,101495.42
2023-03-12T17:13:52.854Z,101508.17
2023-03-12T17:16:21.723Z,101512.67
2023-03-12T17:18:50.469Z,101518.55
2023-03-12T17:21:21.121Z,101518.34
2023-03-12T17:23:50.270Z,101522.42
2023-03-12T17:26:18.631Z,101525.75
2023-03-12T17:28:46.989Z,101535.23
2023-03-12T17:31:15.102Z,101542.02
2023-03-12T17:33:44.698Z,101545.88
2023-03-12T17:36:12.840Z,101552.61
2023-03-12T17:38:40.957Z,101556.53
2023-03-12T17:41:25.176Z,101560.94
2023-03-12T17:44:03.782Z,101564.70
2023-03-12T17:46:32.353Z,101569.52
2023-03-12T17:49:00.720Z,101571.35
2023-03-12T17:51:31.319Z,101575.98
2023-03-12T17:54:04.518Z,101582.75
2023-03-12T17:56:33.164Z,101585.82
2023-03-12T17:59:01.603Z,101585.27
2023-03-12T18:01:30.331Z,101588.47
2023-03-12T18:03:58.407Z,101591.42
2023-03-12T18:06:26.927Z,101592.45
2023-03-12T18:08:57.432Z,101596.74
2023-03-12T18:11:27.654Z,101602.02
2023-03-12T18:13:55.721Z,101604.13
2023-03-12T18:16:23.819Z,101603.56
2023-03-12T18:18:52.955Z,101608.37
2023-03-12T18:21:21.242Z,101610.02
2023-03-12T18:23:49.320Z,101610.60
2023-03-12T18:26:19.990Z,101612.90
2023-03-12T18:28:48.743Z,101619.31
2023-03-12T18:31:17.010Z,101625.25
2023-03-12T18:33:46.134Z,101627.01
2023-03-12T18:36:14.312Z,101628.45
2023-03-12T18:38:42.359Z,101632.13
2023-03-12T18:41:12.540Z,101636.27
2023-03-12T18:43:41.615Z,101641.71
2023-03-12T18:46:10.853Z,101641.45
2023-03-12T18:48:38.948Z,101641.16
2023-03-12T18:51:07.186Z,101649.13
2023-03-12T18:53:35.616Z,101650.20
2023-03-12T18:56:05.495Z,101647.42
2023-03-12T18:58:33.540Z,101650.99
2023-03-12T19:01:01.681Z,101654.25
2023-03-12T19:03:35.624Z,101660.73
2023-03-12T19:06:11.053Z,101660.13
2023-03-12T19:08:42.006Z,101666.39
2023-03-12T19:11:14.137Z,101667.70
2023-03-12T19:13:42.616Z,101670.36
2023-03-12T19:16:14.225Z,101671.86
2023-03-12T19:18:42.486Z,101674.73
2023-03-12T19:21:10.536Z,101675.27
2023-03-12T19:23:38.662Z,101684.17
2023-03-12T19:26:08.102Z,101683.08
2023-03-12T19:28:37.349Z,101686.77
2023-03-12T19:31:09.319Z,101688.10
2023-03-12T19:33:39.492Z,101690.55
2023-03-12T19:36:09.165Z,101692.77
2023-03-12T19:38:37.684Z,101697.20
2023-03-12T19:41:08.351Z,101701.83
2023-03-12T19:43:37.552Z,101705.70
2023-03-12T19:46:06.011Z,101710.73
2023-03-12T19:48:33.974Z,101714.74
2023-03-12T19:51:08.931Z,101717.80
2023-03-12T19:53:37.679Z,101724.96
2023-03-12T19:56:06.199Z,101726.50
2023-03-12T19:58:34.907Z,101732.47
2023-03-12T20:01:03.783Z,101735.66
2023-03-12T20:03:32.513Z,101737.11
2023-03-12T20:06:01.176Z,101740.39
2023-03-12T20:08:31.902Z,101745.57
2023-03-12T20:11:09.194Z,101747.40
2023-03-12T20:13:38.229Z,101748.77
2023-03-12T20:16:07.990Z,101753.91
2023-03-12T20:18:36.251Z,101757.20
2023-03-12T20:21:04.454Z,101759.49
2023-03-12T20:23:32.450Z,101766.28
2023-03-12T20:26:00.438Z,101765.02
2023-03-12T20:28:28.560Z,101768.00
2023-03-12T20:30:57.807Z,101774.76
2023-03-12T20:33:25.826Z,101774.69
2023-03-12T20:35:55.358Z,101778.11
2023-03-12T20:38:23.323Z,101788.77
2023-03-12T20:40:51.366Z,101790.13
2023-03-12T20:43:19.301Z,101790.50
2023-03-12T20:45:48.146Z,101790.27
2023-03-12T20:48:17.230Z,101793.89
2023-03-12T20:50:45.641Z,101793.65
2023-03-12T20:53:13.681Z,101795.00
2023-03-12T20:55:41.825Z,101793.45
2023-03-12T20:58:09.797Z,101797.50
2023-03-12T21:00:38.186Z,101804.86
2023-03-12T21:03:06.287Z,101808.85
2023-03-12T21:05:34.438Z,101806.23
2023-03-12T21:08:02.911Z,101807.59
2023-03-12T21:10:31.692Z,101811.47
2023-03-12T21:12:59.816Z,101811.20
2023-03-12T21:15:28.048Z,101812.94
2023-03-12T21:17:56.126Z,101811.15
2023-03-12T21:20:24.077Z,101813.02
2023-03-12T21:22:52.153Z,101816.61
2023-03-12T21:25:20.436Z,101820.87
2023-03-12T21:27:51.471Z,101820.17
2023-03-12T21:30:20.230Z,101822.34
2023-03-12T21:32:48.352Z,101829.64
2023-03-12T21:35:16.710Z,101826.98
2023-03-12T21:37:45.120Z,101824.71
2023-03-12T21:40:14.076Z,101823.58
2023-03-12T21:42:42.251Z,101819.70
2023-03-12T21:45:10.938Z,101820.45
2023-03-12T21:47:40.667Z,101816.23
2023-03-12T21:50:10.397Z,101815.04
2023-03-12T21:52:41.275Z,101813.12
2023-03-12T21:55:11.314Z,101815.82
2023-03-12T21:57:39.313Z,101818.66
2023-03-12T22:00:13.514Z,101817.75
2023-03-12T22:02:44.056Z,101820.49
2023-03-12T22:05:12.201Z,101822.04
2023-03-12T22:07:40.319Z,101823.56
2023-03-12T22:10:11.290Z,101826.27
2023-03-12T22:12:40.138Z,101829.47
2023-03-12T22:15:09.039Z,101831.98
2023-03-12T22:17:37.120Z,101831.88
2023-03-12T22:20:07.338Z,101838.69
2023-03-12T22:22:35.525Z,101842.25
2023-03-12T22:25:03.967Z,101841.58
2023-03-12T22:27:32.548Z,101840.15
2023-03-12T22:30:00.800Z,101837.95
2023-03-12T22:32:31.661Z,101839.64
2023-03-12T22:34:59.655Z,101841.64
2023-03-12T22:37:27.685Z,101842.72
2023-03-12T22:40:00.871Z,101843.91
2023-03-12T22:42:28.998Z,101845.09
2023-03-12T22:44:56.995Z,101851.11
2023-03-12T22:47:24.803Z,101853.84
2023-03-12T22:49:52.784Z,101852.41
2023-03-12T22:52:20.758Z,101858.77
2023-03-12T22:54:49.873Z,101860.84
2023-03-12T22:57:17.948Z,101861.38
2023-03-12T22:59:47.499Z,101861.05
2023-03-12T23:02:15.724Z,101863.31
2023-03-12T23:04:44.067Z,101867.00
2023-03-12T23:07:15.034Z,101869.52
2023-03-12T23:09:44.619Z,101874.77
2023-03-12T23:12:12.679Z,101875.92
2023-03-12T23:14:40.900Z,101878.10
2023-03-12T23:17:09.373Z,101883.34
2023-03-12T23:19:37.869Z,101887.87
2023-03-12T23:22:06.586Z,101888.48
2023-03-12T23:24:35.111Z,101891.41
2023-03-12T23:27:04.685Z,101895.05
2023-03-12T23:29:34.291Z,101894.23
2023-03-12T23:32:02.420Z,101896.73
2023-03-12T23:34:30.599Z,101891.61
2023-03-12T23:36:59.058Z,101893.84
2023-03-12T23:39:30.370Z,101897.27
2023-03-12T23:41:58.335Z,101897.56
2023-03-12T23:44:26.409Z,101897.48
2023-03-12T23:46:54.398Z,101902.20
2023-03-12T23:49:22.479Z,101898.29
2023-03-12T23:51:50.516Z,101899.52
2023-03-12T23:54:18.555Z,101904.19
2023-03-12T23:56:47.131Z,101907.17
2023-03-12T23:59:15.609Z,101906.41
